Crew | Aerofun Virtual



 METAR AND TAF INFORMATION
METAR FOR EFKI
ADDS - METARS form results

(1527 UTC 24 May 2019)
Data provider http://aviationweather.gov/metar/data/
 
METAR text: EFKI 241520Z AUTO 13008KT 100V160 9999 FEW022 OVC033 06/03 Q1011
Conditions at: EFKI (KAJAANI , FI) observed 1520 UTC 24 May 2019
Temperature: 6.0°C (43°F)
Dewpoint: 3.0°C (37°F) [RH = 81%]
Pressure (altimeter): 29.85 inches Hg (1011.0 mb)
Winds: from the SE (130 degrees) at 9 MPH (8 knots; 4.1 m/s)
Visibility: 6 or more miles (10+ km)
Ceiling: 3300 feet AGL
Clouds: few clouds at 2200 feet AGL
overcast cloud deck at 3300 feet AGL
Weather: no significant weather observed at this time

METAR text: EFKI 241450Z 13008KT 100V170 9999 SCT013 OVC033 06/02 Q1011
Conditions at: EFKI (KAJAANI , FI) observed 1450 UTC 24 May 2019
Temperature: 6.0°C (43°F)
Dewpoint: 2.0°C (36°F) [RH = 75%]
Pressure (altimeter): 29.85 inches Hg (1011.0 mb)
Winds: from the SE (130 degrees) at 9 MPH (8 knots; 4.1 m/s)
Visibility: 6 or more miles (10+ km)
Ceiling: 3300 feet AGL
Clouds: scattered clouds at 1300 feet AGL
overcast cloud deck at 3300 feet AGL
Weather: no significant weather observed at this time

Forecast for: EFKI (KAJAANI , FI)
Text: TAF EFKI 241431Z 2415/2421 16006KT 9999 -RA BKN013 OVC030
Forecast period: 1500 to 2100 UTC 24 May 2019
Forecast type: FROM: standard forecast or significant change
Winds: from the SSE (160 degrees) at 7 MPH (6 knots; 3.1 m/s)
Visibility: 6 or more miles 10+ km)
Ceiling: 1300 feet AGL
Clouds: broken clouds at 1300 feet AGL
overcast cloud deck at 3000 feet AGL
Weather: -RA  (light rain)
Text: BECMG 2415/2417 OVC030
Forecast period: 1500 to 2100 UTC 24 May 2019
Forecast type: BECOMING: Conditions expected to become as follows by 1700 UTC 24 May 2019
Winds: from the SSE (160 degrees) at 7 MPH (6 knots; 3.1 m/s)
Visibility: 6 or more miles 10+ km)
Ceiling: 3000 feet AGL
Clouds: overcast cloud deck at 3000 feet AGL
Weather: -RA  (light rain)

 AIRPORT MAP

 RUNWAY INFORMATION
Runway 07 Runway length 8199 ft Runway width 157 ft
Runway elevation 430 ft Runway displaced threshold 0 ft Runway heading 80
Runway 25 Runway length 8199 ft Runway width 157 ft
Runway elevation 483 ft Runway displaced threshold 0 ft Runway heading 260

 AIRPORT FREQUENCIES
Type AFIS Name AFIS Frequency 118.1 MHZ
Type ATIS Name ATIS Frequency 114.9 MHZ

 AIRPORT NEAR NAVIGATION AIDS
Type NDB Name Kajaani Frequency 337 KHZ
Type VOR-DME Name Kainuu Frequency 114900 KHZ